sensor_id;sensor_type;location;lat;lon;timestamp;P1;durP1;ratioP1;P2;durP2;ratioP2
77944;SDS011;67142;47.404;-1.384;2023-05-14T00:01:15;28.58;;;21.63;;
77944;SDS011;67142;47.404;-1.384;2023-05-14T00:03:41;28.73;;;20.77;;
77944;SDS011;67142;47.404;-1.384;2023-05-14T00:06:07;24.20;;;21.05;;
77944;SDS011;67142;47.404;-1.384;2023-05-14T00:08:34;24.30;;;19.90;;
77944;SDS011;67142;47.404;-1.384;2023-05-14T00:11:00;22.80;;;19.67;;
77944;SDS011;67142;47.404;-1.384;2023-05-14T00:13:26;26.08;;;21.70;;
77944;SDS011;67142;47.404;-1.384;2023-05-14T00:15:53;25.55;;;21.23;;
77944;SDS011;67142;47.404;-1.384;2023-05-14T00:18:19;27.20;;;21.67;;
77944;SDS011;67142;47.404;-1.384;2023-05-14T00:20:44;22.77;;;20.40;;
77944;SDS011;67142;47.404;-1.384;2023-05-14T00:23:10;25.60;;;20.67;;
77944;SDS011;67142;47.404;-1.384;2023-05-14T00:25:36;22.92;;;20.27;;
77944;SDS011;67142;47.404;-1.384;2023-05-14T00:28:03;27.92;;;20.42;;
77944;SDS011;67142;47.404;-1.384;2023-05-14T00:30:29;29.83;;;20.95;;
77944;SDS011;67142;47.404;-1.384;2023-05-14T00:32:55;23.52;;;20.70;;
77944;SDS011;67142;47.404;-1.384;2023-05-14T00:35:21;25.37;;;20.63;;
77944;SDS011;67142;47.404;-1.384;2023-05-14T00:37:47;25.40;;;20.95;;
77944;SDS011;67142;47.404;-1.384;2023-05-14T00:40:13;23.52;;;21.00;;
77944;SDS011;67142;47.404;-1.384;2023-05-14T00:42:39;25.65;;;20.95;;
77944;SDS011;67142;47.404;-1.384;2023-05-14T00:45:06;25.58;;;20.17;;
77944;SDS011;67142;47.404;-1.384;2023-05-14T00:47:32;28.40;;;20.37;;
77944;SDS011;67142;47.404;-1.384;2023-05-14T00:50:03;27.33;;;20.60;;
77944;SDS011;67142;47.404;-1.384;2023-05-14T00:52:29;24.30;;;20.38;;
77944;SDS011;67142;47.404;-1.384;2023-05-14T00:54:56;25.17;;;21.25;;
77944;SDS011;67142;47.404;-1.384;2023-05-14T00:57:23;28.10;;;21.15;;
77944;SDS011;67142;47.404;-1.384;2023-05-14T00:59:49;23.03;;;20.17;;
77944;SDS011;67142;47.404;-1.384;2023-05-14T01:02:15;25.30;;;19.67;;
77944;SDS011;67142;47.404;-1.384;2023-05-14T01:04:41;28.77;;;20.90;;
77944;SDS011;67142;47.404;-1.384;2023-05-14T01:17:10;24.48;;;21.13;;
77944;SDS011;67142;47.404;-1.384;2023-05-14T01:19:41;27.58;;;21.90;;
77944;SDS011;67142;47.404;-1.384;2023-05-14T01:22:07;23.90;;;20.53;;
77944;SDS011;67142;47.404;-1.384;2023-05-14T01:24:33;27.42;;;21.13;;
77944;SDS011;67142;47.404;-1.384;2023-05-14T01:27:08;25.38;;;20.45;;
77944;SDS011;67142;47.404;-1.384;2023-05-14T01:29:36;24.35;;;20.50;;
77944;SDS011;67142;47.404;-1.384;2023-05-14T01:32:04;25.90;;;21.65;;
77944;SDS011;67142;47.404;-1.384;2023-05-14T01:34:31;23.40;;;20.20;;
77944;SDS011;67142;47.404;-1.384;2023-05-14T01:36:57;23.65;;;20.20;;
77944;SDS011;67142;47.404;-1.384;2023-05-14T01:39:25;25.83;;;21.27;;
77944;SDS011;67142;47.404;-1.384;2023-05-14T01:41:51;24.27;;;20.85;;
77944;SDS011;67142;47.404;-1.384;2023-05-14T01:44:18;28.63;;;21.92;;
77944;SDS011;67142;47.404;-1.384;2023-05-14T01:46:44;25.70;;;21.30;;
77944;SDS011;67142;47.404;-1.384;2023-05-14T01:49:10;25.42;;;21.15;;
77944;SDS011;67142;47.404;-1.384;2023-05-14T01:51:36;28.95;;;21.63;;
77944;SDS011;67142;47.404;-1.384;2023-05-14T01:54:02;26.73;;;21.83;;
77944;SDS011;67142;47.404;-1.384;2023-05-14T01:56:28;25.13;;;21.25;;
77944;SDS011;67142;47.404;-1.384;2023-05-14T01:58:54;28.03;;;20.83;;
77944;SDS011;67142;47.404;-1.384;2023-05-14T02:01:21;28.98;;;21.20;;
77944;SDS011;67142;47.404;-1.384;2023-05-14T02:03:47;27.73;;;21.33;;
77944;SDS011;67142;47.404;-1.384;2023-05-14T02:06:13;25.55;;;20.88;;
77944;SDS011;67142;47.404;-1.384;2023-05-14T02:08:39;27.05;;;21.25;;
77944;SDS011;67142;47.404;-1.384;2023-05-14T02:11:05;29.00;;;21.07;;
77944;SDS011;67142;47.404;-1.384;2023-05-14T02:13:31;25.25;;;20.38;;
77944;SDS011;67142;47.404;-1.384;2023-05-14T02:15:57;27.60;;;20.70;;
77944;SDS011;67142;47.404;-1.384;2023-05-14T02:18:23;29.98;;;21.30;;
77944;SDS011;67142;47.404;-1.384;2023-05-14T02:20:49;29.48;;;21.83;;
77944;SDS011;67142;47.404;-1.384;2023-05-14T02:23:15;25.23;;;20.50;;
77944;SDS011;67142;47.404;-1.384;2023-05-14T02:25:43;26.25;;;20.88;;
77944;SDS011;67142;47.404;-1.384;2023-05-14T02:28:09;28.75;;;21.88;;
77944;SDS011;67142;47.404;-1.384;2023-05-14T02:30:35;27.42;;;21.13;;
77944;SDS011;67142;47.404;-1.384;2023-05-14T02:33:01;27.77;;;21.23;;
77944;SDS011;67142;47.404;-1.384;2023-05-14T02:35:27;28.27;;;21.60;;
77944;SDS011;67142;47.404;-1.384;2023-05-14T02:37:53;28.02;;;21.40;;
77944;SDS011;67142;47.404;-1.384;2023-05-14T02:40:20;26.23;;;20.90;;
77944;SDS011;67142;47.404;-1.384;2023-05-14T02:42:46;25.52;;;20.30;;
77944;SDS011;67142;47.404;-1.384;2023-05-14T02:45:12;26.88;;;21.08;;
77944;SDS011;67142;47.404;-1.384;2023-05-14T02:47:38;26.07;;;22.17;;
77944;SDS011;67142;47.404;-1.384;2023-05-14T02:50:04;26.15;;;20.33;;
77944;SDS011;67142;47.404;-1.384;2023-05-14T02:52:30;28.00;;;22.40;;
77944;SDS011;67142;47.404;-1.384;2023-05-14T02:54:56;28.92;;;21.65;;
77944;SDS011;67142;47.404;-1.384;2023-05-14T02:57:22;25.05;;;21.35;;
77944;SDS011;67142;47.404;-1.384;2023-05-14T02:59:48;25.23;;;20.73;;
77944;SDS011;67142;47.404;-1.384;2023-05-14T03:02:14;25.67;;;21.42;;
77944;SDS011;67142;47.404;-1.384;2023-05-14T03:04:40;26.45;;;21.38;;
77944;SDS011;67142;47.404;-1.384;2023-05-14T03:07:06;25.42;;;20.58;;
77944;SDS011;67142;47.404;-1.384;2023-05-14T03:09:32;24.65;;;20.83;;
77944;SDS011;67142;47.404;-1.384;2023-05-14T03:11:58;27.90;;;21.57;;
77944;SDS011;67142;47.404;-1.384;2023-05-14T03:14:25;28.33;;;21.67;;
77944;SDS011;67142;47.404;-1.384;2023-05-14T03:16:51;28.65;;;21.77;;
77944;SDS011;67142;47.404;-1.384;2023-05-14T03:19:17;31.08;;;22.67;;
77944;SDS011;67142;47.404;-1.384;2023-05-14T03:21:43;30.08;;;22.05;;
77944;SDS011;67142;47.404;-1.384;2023-05-14T03:24:09;35.93;;;23.33;;
77944;SDS011;67142;47.404;-1.384;2023-05-14T03:26:35;30.00;;;23.08;;
77944;SDS011;67142;47.404;-1.384;2023-05-14T03:29:01;36.35;;;22.98;;
77944;SDS011;67142;47.404;-1.384;2023-05-14T03:31:28;33.63;;;24.08;;
77944;SDS011;67142;47.404;-1.384;2023-05-14T03:33:54;35.50;;;23.13;;
77944;SDS011;67142;47.404;-1.384;2023-05-14T03:36:20;34.67;;;22.87;;
77944;SDS011;67142;47.404;-1.384;2023-05-14T03:38:46;32.55;;;23.58;;
77944;SDS011;67142;47.404;-1.384;2023-05-14T03:41:12;31.65;;;23.48;;
77944;SDS011;67142;47.404;-1.384;2023-05-14T03:43:38;35.50;;;23.88;;
77944;SDS011;67142;47.404;-1.384;2023-05-14T03:46:04;32.78;;;23.35;;
77944;SDS011;67142;47.404;-1.384;2023-05-14T03:48:30;30.93;;;23.03;;
77944;SDS011;67142;47.404;-1.384;2023-05-14T03:50:56;35.97;;;24.35;;
77944;SDS011;67142;47.404;-1.384;2023-05-14T03:53:22;35.58;;;24.35;;
77944;SDS011;67142;47.404;-1.384;2023-05-14T03:55:48;33.65;;;23.80;;
77944;SDS011;67142;47.404;-1.384;2023-05-14T03:58:14;34.60;;;23.65;;
77944;SDS011;67142;47.404;-1.384;2023-05-14T04:00:40;33.80;;;23.43;;
77944;SDS011;67142;47.404;-1.384;2023-05-14T04:03:07;32.38;;;22.42;;
77944;SDS011;67142;47.404;-1.384;2023-05-14T04:05:33;33.97;;;23.02;;
77944;SDS011;67142;47.404;-1.384;2023-05-14T04:07:59;33.80;;;22.88;;
77944;SDS011;67142;47.404;-1.384;2023-05-14T04:10:25;33.65;;;23.60;;
77944;SDS011;67142;47.404;-1.384;2023-05-14T04:12:51;33.57;;;22.97;;
77944;SDS011;67142;47.404;-1.384;2023-05-14T04:15:19;31.23;;;22.90;;
77944;SDS011;67142;47.404;-1.384;2023-05-14T04:17:45;30.23;;;21.65;;
77944;SDS011;67142;47.404;-1.384;2023-05-14T04:20:11;37.85;;;23.70;;
77944;SDS011;67142;47.404;-1.384;2023-05-14T04:22:37;31.60;;;23.40;;
77944;SDS011;67142;47.404;-1.384;2023-05-14T04:25:03;35.87;;;22.37;;
77944;SDS011;67142;47.404;-1.384;2023-05-14T04:27:29;34.55;;;23.63;;
77944;SDS011;67142;47.404;-1.384;2023-05-14T04:29:55;32.78;;;23.25;;
77944;SDS011;67142;47.404;-1.384;2023-05-14T04:32:21;34.58;;;22.45;;
77944;SDS011;67142;47.404;-1.384;2023-05-14T04:34:47;32.08;;;23.35;;
77944;SDS011;67142;47.404;-1.384;2023-05-14T04:37:13;34.40;;;23.00;;
77944;SDS011;67142;47.404;-1.384;2023-05-14T04:39:39;36.70;;;24.15;;
77944;SDS011;67142;47.404;-1.384;2023-05-14T04:42:05;32.50;;;23.77;;
77944;SDS011;67142;47.404;-1.384;2023-05-14T04:44:32;34.10;;;23.52;;
77944;SDS011;67142;47.404;-1.384;2023-05-14T04:46:58;37.13;;;23.85;;
77944;SDS011;67142;47.404;-1.384;2023-05-14T04:49:24;33.40;;;23.77;;
77944;SDS011;67142;47.404;-1.384;2023-05-14T04:51:51;31.50;;;23.52;;
77944;SDS011;67142;47.404;-1.384;2023-05-14T04:54:17;34.15;;;24.05;;
77944;SDS011;67142;47.404;-1.384;2023-05-14T04:56:43;35.45;;;24.20;;
77944;SDS011;67142;47.404;-1.384;2023-05-14T04:59:09;36.17;;;25.17;;
77944;SDS011;67142;47.404;-1.384;2023-05-14T05:01:35;31.40;;;23.33;;
77944;SDS011;67142;47.404;-1.384;2023-05-14T05:04:01;33.25;;;24.05;;
77944;SDS011;67142;47.404;-1.384;2023-05-14T05:06:27;35.03;;;24.88;;
77944;SDS011;67142;47.404;-1.384;2023-05-14T05:08:53;32.15;;;23.33;;
77944;SDS011;67142;47.404;-1.384;2023-05-14T05:11:19;36.15;;;23.13;;
77944;SDS011;67142;47.404;-1.384;2023-05-14T05:13:45;34.93;;;23.50;;
77944;SDS011;67142;47.404;-1.384;2023-05-14T05:16:11;33.30;;;23.95;;
77944;SDS011;67142;47.404;-1.384;2023-05-14T05:18:37;37.70;;;25.35;;
77944;SDS011;67142;47.404;-1.384;2023-05-14T05:21:04;37.08;;;24.27;;
77944;SDS011;67142;47.404;-1.384;2023-05-14T05:23:30;37.90;;;25.08;;
77944;SDS011;67142;47.404;-1.384;2023-05-14T05:25:57;34.30;;;24.07;;
77944;SDS011;67142;47.404;-1.384;2023-05-14T05:28:22;38.70;;;25.48;;
77944;SDS011;67142;47.404;-1.384;2023-05-14T05:30:48;34.22;;;25.25;;
77944;SDS011;67142;47.404;-1.384;2023-05-14T05:33:14;36.33;;;24.75;;
77944;SDS011;67142;47.404;-1.384;2023-05-14T05:35:41;34.30;;;24.00;;
77944;SDS011;67142;47.404;-1.384;2023-05-14T05:38:08;33.97;;;22.83;;
77944;SDS011;67142;47.404;-1.384;2023-05-14T05:40:34;31.75;;;23.38;;
77944;SDS011;67142;47.404;-1.384;2023-05-14T05:43:00;35.25;;;24.15;;
77944;SDS011;67142;47.404;-1.384;2023-05-14T05:45:26;33.28;;;24.30;;
77944;SDS011;67142;47.404;-1.384;2023-05-14T05:47:52;35.92;;;25.40;;
77944;SDS011;67142;47.404;-1.384;2023-05-14T05:50:18;36.93;;;24.63;;
77944;SDS011;67142;47.404;-1.384;2023-05-14T05:52:44;36.13;;;24.45;;
77944;SDS011;67142;47.404;-1.384;2023-05-14T05:55:10;36.65;;;25.40;;
77944;SDS011;67142;47.404;-1.384;2023-05-14T05:57:36;36.50;;;24.33;;
77944;SDS011;67142;47.404;-1.384;2023-05-14T06:00:02;37.78;;;24.45;;
77944;SDS011;67142;47.404;-1.384;2023-05-14T06:02:38;34.07;;;24.63;;
77944;SDS011;67142;47.404;-1.384;2023-05-14T06:05:04;35.88;;;24.60;;
77944;SDS011;67142;47.404;-1.384;2023-05-14T06:07:31;37.10;;;25.65;;
77944;SDS011;67142;47.404;-1.384;2023-05-14T06:09:57;38.45;;;24.83;;
77944;SDS011;67142;47.404;-1.384;2023-05-14T06:12:23;37.03;;;25.05;;
77944;SDS011;67142;47.404;-1.384;2023-05-14T06:14:49;36.63;;;25.20;;
77944;SDS011;67142;47.404;-1.384;2023-05-14T06:17:15;34.33;;;24.55;;
77944;SDS011;67142;47.404;-1.384;2023-05-14T06:19:41;42.22;;;25.90;;
77944;SDS011;67142;47.404;-1.384;2023-05-14T06:22:07;41.75;;;26.45;;
77944;SDS011;67142;47.404;-1.384;2023-05-14T06:24:33;35.13;;;25.30;;
77944;SDS011;67142;47.404;-1.384;2023-05-14T06:26:59;35.27;;;25.43;;
77944;SDS011;67142;47.404;-1.384;2023-05-14T06:29:25;33.20;;;24.10;;
77944;SDS011;67142;47.404;-1.384;2023-05-14T06:31:51;37.67;;;26.00;;
77944;SDS011;67142;47.404;-1.384;2023-05-14T06:34:17;37.08;;;25.80;;
77944;SDS011;67142;47.404;-1.384;2023-05-14T06:36:44;38.80;;;25.63;;
77944;SDS011;67142;47.404;-1.384;2023-05-14T06:39:10;37.70;;;25.00;;
77944;SDS011;67142;47.404;-1.384;2023-05-14T06:41:36;40.88;;;25.80;;
77944;SDS011;67142;47.404;-1.384;2023-05-14T06:44:02;36.85;;;25.92;;
77944;SDS011;67142;47.404;-1.384;2023-05-14T06:46:28;33.72;;;24.55;;
77944;SDS011;67142;47.404;-1.384;2023-05-14T06:48:54;36.65;;;26.27;;
77944;SDS011;67142;47.404;-1.384;2023-05-14T06:51:20;37.03;;;25.57;;
77944;SDS011;67142;47.404;-1.384;2023-05-14T06:53:46;37.15;;;24.92;;
77944;SDS011;67142;47.404;-1.384;2023-05-14T06:56:12;38.60;;;26.02;;
77944;SDS011;67142;47.404;-1.384;2023-05-14T06:58:38;33.30;;;25.55;;
77944;SDS011;67142;47.404;-1.384;2023-05-14T07:01:05;37.97;;;25.02;;
77944;SDS011;67142;47.404;-1.384;2023-05-14T07:03:31;36.67;;;25.47;;
77944;SDS011;67142;47.404;-1.384;2023-05-14T07:05:57;41.30;;;25.38;;
77944;SDS011;67142;47.404;-1.384;2023-05-14T07:08:23;34.45;;;25.05;;
77944;SDS011;67142;47.404;-1.384;2023-05-14T07:10:49;33.30;;;25.52;;
77944;SDS011;67142;47.404;-1.384;2023-05-14T07:13:15;36.95;;;26.27;;
77944;SDS011;67142;47.404;-1.384;2023-05-14T07:15:41;36.83;;;24.93;;
77944;SDS011;67142;47.404;-1.384;2023-05-14T07:18:07;34.22;;;25.30;;
77944;SDS011;67142;47.404;-1.384;2023-05-14T07:20:33;34.88;;;26.20;;
77944;SDS011;67142;47.404;-1.384;2023-05-14T07:22:59;34.83;;;24.33;;
77944;SDS011;67142;47.404;-1.384;2023-05-14T07:25:25;38.05;;;25.38;;
77944;SDS011;67142;47.404;-1.384;2023-05-14T07:27:51;34.63;;;24.83;;
77944;SDS011;67142;47.404;-1.384;2023-05-14T07:30:17;32.65;;;24.48;;
77944;SDS011;67142;47.404;-1.384;2023-05-14T07:32:43;33.03;;;23.42;;
77944;SDS011;67142;47.404;-1.384;2023-05-14T07:35:09;35.10;;;24.90;;
77944;SDS011;67142;47.404;-1.384;2023-05-14T07:37:36;31.38;;;24.13;;
77944;SDS011;67142;47.404;-1.384;2023-05-14T07:40:03;33.83;;;25.03;;
77944;SDS011;67142;47.404;-1.384;2023-05-14T07:42:29;31.60;;;24.02;;
77944;SDS011;67142;47.404;-1.384;2023-05-14T07:44:55;33.08;;;25.20;;
77944;SDS011;67142;47.404;-1.384;2023-05-14T07:47:22;31.70;;;23.67;;
77944;SDS011;67142;47.404;-1.384;2023-05-14T07:49:48;37.20;;;24.50;;
77944;SDS011;67142;47.404;-1.384;2023-05-14T07:52:14;30.00;;;22.67;;
77944;SDS011;67142;47.404;-1.384;2023-05-14T07:54:40;33.60;;;24.63;;
77944;SDS011;67142;47.404;-1.384;2023-05-14T07:57:06;30.88;;;23.80;;
77944;SDS011;67142;47.404;-1.384;2023-05-14T07:59:32;33.15;;;23.70;;
77944;SDS011;67142;47.404;-1.384;2023-05-14T08:01:58;32.50;;;24.20;;
77944;SDS011;67142;47.404;-1.384;2023-05-14T08:04:24;33.23;;;24.97;;
77944;SDS011;67142;47.404;-1.384;2023-05-14T08:06:50;32.35;;;22.85;;
77944;SDS011;67142;47.404;-1.384;2023-05-14T08:09:16;30.52;;;25.27;;
77944;SDS011;67142;47.404;-1.384;2023-05-14T08:11:42;30.80;;;23.67;;
77944;SDS011;67142;47.404;-1.384;2023-05-14T08:14:08;29.17;;;23.73;;
77944;SDS011;67142;47.404;-1.384;2023-05-14T08:16:34;29.70;;;23.77;;
77944;SDS011;67142;47.404;-1.384;2023-05-14T08:19:00;33.90;;;25.27;;
77944;SDS011;67142;47.404;-1.384;2023-05-14T08:21:26;32.20;;;24.55;;
77944;SDS011;67142;47.404;-1.384;2023-05-14T08:23:52;32.88;;;24.15;;
77944;SDS011;67142;47.404;-1.384;2023-05-14T08:26:18;34.10;;;25.67;;
77944;SDS011;67142;47.404;-1.384;2023-05-14T08:28:45;32.30;;;23.63;;
77944;SDS011;67142;47.404;-1.384;2023-05-14T08:31:11;35.30;;;24.60;;
77944;SDS011;67142;47.404;-1.384;2023-05-14T08:33:41;33.75;;;24.52;;
77944;SDS011;67142;47.404;-1.384;2023-05-14T08:36:07;33.63;;;23.75;;
77944;SDS011;67142;47.404;-1.384;2023-05-14T08:38:33;31.10;;;24.50;;
77944;SDS011;67142;47.404;-1.384;2023-05-14T08:40:59;33.43;;;24.40;;
77944;SDS011;67142;47.404;-1.384;2023-05-14T08:43:25;29.42;;;23.75;;
77944;SDS011;67142;47.404;-1.384;2023-05-14T08:45:53;30.10;;;23.98;;
77944;SDS011;67142;47.404;-1.384;2023-05-14T08:48:22;29.55;;;23.38;;
77944;SDS011;67142;47.404;-1.384;2023-05-14T08:50:50;29.63;;;22.80;;
77944;SDS011;67142;47.404;-1.384;2023-05-14T08:53:16;29.50;;;22.23;;
77944;SDS011;67142;47.404;-1.384;2023-05-14T08:55:42;29.02;;;23.20;;
77944;SDS011;67142;47.404;-1.384;2023-05-14T08:58:09;29.80;;;23.90;;
77944;SDS011;67142;47.404;-1.384;2023-05-14T09:00:35;27.60;;;23.17;;
77944;SDS011;67142;47.404;-1.384;2023-05-14T09:03:01;28.50;;;23.63;;
77944;SDS011;67142;47.404;-1.384;2023-05-14T09:05:28;30.80;;;23.50;;
77944;SDS011;67142;47.404;-1.384;2023-05-14T09:07:54;30.27;;;23.17;;
77944;SDS011;67142;47.404;-1.384;2023-05-14T09:10:20;30.50;;;23.70;;
77944;SDS011;67142;47.404;-1.384;2023-05-14T09:12:46;27.77;;;23.27;;
77944;SDS011;67142;47.404;-1.384;2023-05-14T09:15:12;27.73;;;22.83;;
77944;SDS011;67142;47.404;-1.384;2023-05-14T09:17:38;25.70;;;22.70;;
77944;SDS011;67142;47.404;-1.384;2023-05-14T09:20:05;26.70;;;22.73;;
77944;SDS011;67142;47.404;-1.384;2023-05-14T09:22:31;29.55;;;22.73;;
77944;SDS011;67142;47.404;-1.384;2023-05-14T09:25:04;29.90;;;23.20;;
77944;SDS011;67142;47.404;-1.384;2023-05-14T09:27:31;28.85;;;24.00;;
77944;SDS011;67142;47.404;-1.384;2023-05-14T09:30:07;31.27;;;24.70;;
77944;SDS011;67142;47.404;-1.384;2023-05-14T09:32:40;27.88;;;24.15;;
77944;SDS011;67142;47.404;-1.384;2023-05-14T09:35:18;27.38;;;24.08;;
77944;SDS011;67142;47.404;-1.384;2023-05-14T09:37:51;27.10;;;24.20;;
77944;SDS011;67142;47.404;-1.384;2023-05-14T09:40:18;26.70;;;22.35;;
77944;SDS011;67142;47.404;-1.384;2023-05-14T09:42:45;27.93;;;22.60;;
77944;SDS011;67142;47.404;-1.384;2023-05-14T09:45:13;27.90;;;23.77;;
77944;SDS011;67142;47.404;-1.384;2023-05-14T09:47:39;25.85;;;23.23;;
77944;SDS011;67142;47.404;-1.384;2023-05-14T09:50:05;25.27;;;22.58;;
77944;SDS011;67142;47.404;-1.384;2023-05-14T09:52:31;26.33;;;22.73;;
77944;SDS011;67142;47.404;-1.384;2023-05-14T09:54:58;24.97;;;22.37;;
77944;SDS011;67142;47.404;-1.384;2023-05-14T09:57:24;25.55;;;22.85;;
77944;SDS011;67142;47.404;-1.384;2023-05-14T09:59:51;25.77;;;23.10;;
77944;SDS011;67142;47.404;-1.384;2023-05-14T10:04:43;28.80;;;24.17;;
77944;SDS011;67142;47.404;-1.384;2023-05-14T10:07:09;28.70;;;23.60;;
77944;SDS011;67142;47.404;-1.384;2023-05-14T10:09:36;25.00;;;22.02;;
77944;SDS011;67142;47.404;-1.384;2023-05-14T10:12:03;25.25;;;22.55;;
77944;SDS011;67142;47.404;-1.384;2023-05-14T10:14:34;26.40;;;23.58;;
77944;SDS011;67142;47.404;-1.384;2023-05-14T10:17:02;28.00;;;23.85;;
77944;SDS011;67142;47.404;-1.384;2023-05-14T10:19:32;27.13;;;22.93;;
77944;SDS011;67142;47.404;-1.384;2023-05-14T10:22:06;27.25;;;24.30;;
77944;SDS011;67142;47.404;-1.384;2023-05-14T10:24:32;26.25;;;23.60;;
77944;SDS011;67142;47.404;-1.384;2023-05-14T10:26:58;26.80;;;23.67;;
77944;SDS011;67142;47.404;-1.384;2023-05-14T10:29:33;26.85;;;24.00;;
77944;SDS011;67142;47.404;-1.384;2023-05-14T10:32:00;26.13;;;22.50;;
77944;SDS011;67142;47.404;-1.384;2023-05-14T10:37:02;27.13;;;24.42;;
77944;SDS011;67142;47.404;-1.384;2023-05-14T10:42:25;28.08;;;24.98;;
77944;SDS011;67142;47.404;-1.384;2023-05-14T10:47:19;25.42;;;22.75;;
77944;SDS011;67142;47.404;-1.384;2023-05-14T10:49:46;25.05;;;22.50;;
77944;SDS011;67142;47.404;-1.384;2023-05-14T10:52:16;23.98;;;21.73;;
77944;SDS011;67142;47.404;-1.384;2023-05-14T10:57:22;23.53;;;21.27;;
77944;SDS011;67142;47.404;-1.384;2023-05-14T10:59:50;24.42;;;21.92;;
77944;SDS011;67142;47.404;-1.384;2023-05-14T11:02:21;22.95;;;20.60;;
77944;SDS011;67142;47.404;-1.384;2023-05-14T11:05:30;25.50;;;22.90;;
77944;SDS011;67142;47.404;-1.384;2023-05-14T11:07:39;24.80;;;22.30;;
77944;SDS011;67142;47.404;-1.384;2023-05-14T11:10:18;24.93;;;21.80;;
77944;SDS011;67142;47.404;-1.384;2023-05-14T11:12:50;24.25;;;21.65;;
77944;SDS011;67142;47.404;-1.384;2023-05-14T11:15:20;23.63;;;21.17;;
77944;SDS011;67142;47.404;-1.384;2023-05-14T11:17:47;23.73;;;21.25;;
77944;SDS011;67142;47.404;-1.384;2023-05-14T11:20:13;24.20;;;21.80;;
77944;SDS011;67142;47.404;-1.384;2023-05-14T11:22:40;23.77;;;21.40;;
77944;SDS011;67142;47.404;-1.384;2023-05-14T11:25:07;24.25;;;21.65;;
77944;SDS011;67142;47.404;-1.384;2023-05-14T11:27:34;23.20;;;21.00;;
77944;SDS011;67142;47.404;-1.384;2023-05-14T11:30:01;22.88;;;20.73;;
77944;SDS011;67142;47.404;-1.384;2023-05-14T11:32:27;23.23;;;20.92;;
77944;SDS011;67142;47.404;-1.384;2023-05-14T11:34:54;24.30;;;21.97;;
77944;SDS011;67142;47.404;-1.384;2023-05-14T11:37:20;24.17;;;21.77;;
77944;SDS011;67142;47.404;-1.384;2023-05-14T11:39:49;24.67;;;22.00;;
77944;SDS011;67142;47.404;-1.384;2023-05-14T11:42:16;23.15;;;20.98;;
77944;SDS011;67142;47.404;-1.384;2023-05-14T11:44:47;23.85;;;21.52;;
77944;SDS011;67142;47.404;-1.384;2023-05-14T11:47:13;23.33;;;21.03;;
77944;SDS011;67142;47.404;-1.384;2023-05-14T11:49:39;23.65;;;21.42;;
77944;SDS011;67142;47.404;-1.384;2023-05-14T11:52:07;24.50;;;22.10;;
77944;SDS011;67142;47.404;-1.384;2023-05-14T11:54:38;23.67;;;21.48;;
77944;SDS011;67142;47.404;-1.384;2023-05-14T11:57:09;24.25;;;21.73;;
77944;SDS011;67142;47.404;-1.384;2023-05-14T11:59:35;23.57;;;21.47;;
77944;SDS011;67142;47.404;-1.384;2023-05-14T12:02:02;23.42;;;21.33;;
77944;SDS011;67142;47.404;-1.384;2023-05-14T12:04:29;24.27;;;22.02;;
77944;SDS011;67142;47.404;-1.384;2023-05-14T12:06:56;23.58;;;21.40;;
77944;SDS011;67142;47.404;-1.384;2023-05-14T12:09:22;23.92;;;21.73;;
77944;SDS011;67142;47.404;-1.384;2023-05-14T12:11:49;23.40;;;21.40;;
77944;SDS011;67142;47.404;-1.384;2023-05-14T12:14:19;23.65;;;21.35;;
77944;SDS011;67142;47.404;-1.384;2023-05-14T12:16:45;23.35;;;21.35;;
77944;SDS011;67142;47.404;-1.384;2023-05-14T12:19:15;23.63;;;21.52;;
77944;SDS011;67142;47.404;-1.384;2023-05-14T12:21:42;24.92;;;22.90;;
77944;SDS011;67142;47.404;-1.384;2023-05-14T12:24:17;23.23;;;21.23;;
77944;SDS011;67142;47.404;-1.384;2023-05-14T12:26:44;24.38;;;22.27;;
77944;SDS011;67142;47.404;-1.384;2023-05-14T12:29:11;23.08;;;20.92;;
77944;SDS011;67142;47.404;-1.384;2023-05-14T12:31:38;21.70;;;19.98;;
77944;SDS011;67142;47.404;-1.384;2023-05-14T12:34:09;22.23;;;20.08;;
77944;SDS011;67142;47.404;-1.384;2023-05-14T12:36:35;20.53;;;18.73;;
77944;SDS011;67142;47.404;-1.384;2023-05-14T12:39:01;21.13;;;19.23;;
77944;SDS011;67142;47.404;-1.384;2023-05-14T12:41:28;20.23;;;18.42;;
77944;SDS011;67142;47.404;-1.384;2023-05-14T12:43:55;21.42;;;19.40;;
77944;SDS011;67142;47.404;-1.384;2023-05-14T12:46:21;21.45;;;19.38;;
77944;SDS011;67142;47.404;-1.384;2023-05-14T12:48:47;21.07;;;19.17;;
77944;SDS011;67142;47.404;-1.384;2023-05-14T12:51:14;21.63;;;19.83;;
77944;SDS011;67142;47.404;-1.384;2023-05-14T12:53:40;20.75;;;19.02;;
77944;SDS011;67142;47.404;-1.384;2023-05-14T12:56:06;21.25;;;19.35;;
77944;SDS011;67142;47.404;-1.384;2023-05-14T12:58:32;20.40;;;18.48;;
77944;SDS011;67142;47.404;-1.384;2023-05-14T13:00:58;19.67;;;17.87;;
77944;SDS011;67142;47.404;-1.384;2023-05-14T13:03:24;20.85;;;19.15;;
77944;SDS011;67142;47.404;-1.384;2023-05-14T13:05:50;21.80;;;19.90;;
77944;SDS011;67142;47.404;-1.384;2023-05-14T13:08:17;21.10;;;19.27;;
77944;SDS011;67142;47.404;-1.384;2023-05-14T13:10:45;20.30;;;18.60;;
77944;SDS011;67142;47.404;-1.384;2023-05-14T13:13:13;20.97;;;19.30;;
77944;SDS011;67142;47.404;-1.384;2023-05-14T13:15:40;21.40;;;19.60;;
77944;SDS011;67142;47.404;-1.384;2023-05-14T13:18:06;21.85;;;19.95;;
77944;SDS011;67142;47.404;-1.384;2023-05-14T13:20:32;19.50;;;17.75;;
77944;SDS011;67142;47.404;-1.384;2023-05-14T13:22:58;20.67;;;18.88;;
77944;SDS011;67142;47.404;-1.384;2023-05-14T13:25:24;20.17;;;18.47;;
77944;SDS011;67142;47.404;-1.384;2023-05-14T13:27:50;19.33;;;17.80;;
77944;SDS011;67142;47.404;-1.384;2023-05-14T13:30:17;20.50;;;18.85;;
77944;SDS011;67142;47.404;-1.384;2023-05-14T13:32:43;19.10;;;17.48;;
77944;SDS011;67142;47.404;-1.384;2023-05-14T13:35:09;19.55;;;17.98;;
77944;SDS011;67142;47.404;-1.384;2023-05-14T13:37:35;20.90;;;19.00;;
77944;SDS011;67142;47.404;-1.384;2023-05-14T13:40:01;19.42;;;17.83;;
77944;SDS011;67142;47.404;-1.384;2023-05-14T13:42:32;19.02;;;17.42;;
77944;SDS011;67142;47.404;-1.384;2023-05-14T13:44:58;19.35;;;17.85;;
77944;SDS011;67142;47.404;-1.384;2023-05-14T13:47:25;19.27;;;17.58;;
77944;SDS011;67142;47.404;-1.384;2023-05-14T13:49:54;18.30;;;16.73;;
77944;SDS011;67142;47.404;-1.384;2023-05-14T13:52:20;19.00;;;17.50;;
77944;SDS011;67142;47.404;-1.384;2023-05-14T13:54:47;19.13;;;17.30;;
77944;SDS011;67142;47.404;-1.384;2023-05-14T13:57:13;18.08;;;16.63;;
77944;SDS011;67142;47.404;-1.384;2023-05-14T13:59:39;19.20;;;17.70;;
77944;SDS011;67142;47.404;-1.384;2023-05-14T14:02:06;19.47;;;17.97;;
77944;SDS011;67142;47.404;-1.384;2023-05-14T14:04:32;19.13;;;17.45;;
77944;SDS011;67142;47.404;-1.384;2023-05-14T14:06:58;18.70;;;17.00;;
77944;SDS011;67142;47.404;-1.384;2023-05-14T14:09:24;18.33;;;16.92;;
77944;SDS011;67142;47.404;-1.384;2023-05-14T14:11:50;18.33;;;16.83;;
77944;SDS011;67142;47.404;-1.384;2023-05-14T14:14:16;18.20;;;16.80;;
77944;SDS011;67142;47.404;-1.384;2023-05-14T14:16:43;18.52;;;16.92;;
77944;SDS011;67142;47.404;-1.384;2023-05-14T14:19:09;18.40;;;16.90;;
77944;SDS011;67142;47.404;-1.384;2023-05-14T14:21:35;20.00;;;18.20;;
77944;SDS011;67142;47.404;-1.384;2023-05-14T14:24:03;20.45;;;18.65;;
77944;SDS011;67142;47.404;-1.384;2023-05-14T14:26:30;19.23;;;17.73;;
77944;SDS011;67142;47.404;-1.384;2023-05-14T14:28:56;18.98;;;17.35;;